createdAt,value
2018-01-05T00:01:12.741Z,5.33
2018-01-05T00:03:16.114Z,4.30
2018-01-05T00:05:19.458Z,6.40
2018-01-05T00:07:23.580Z,5.50
2018-01-05T00:09:27.113Z,5.40
2018-01-05T00:11:31.019Z,6.33
2018-01-05T00:13:34.398Z,7.53
2018-01-05T00:15:37.906Z,7.33
2018-01-05T00:17:41.256Z,5.17
2018-01-05T00:19:44.951Z,6.30
2018-01-05T00:21:49.333Z,5.17
2018-01-05T00:23:52.765Z,7.20
2018-01-05T00:25:58.129Z,5.83
2018-01-05T00:28:02.312Z,9.43
2018-01-05T00:30:07.019Z,6.47
2018-01-05T00:32:10.437Z,10.60
2018-01-05T00:34:15.126Z,6.60
2018-01-05T00:36:19.340Z,6.63
2018-01-05T00:38:22.687Z,7.20
2018-01-05T00:40:26.005Z,5.70
2018-01-05T00:42:29.480Z,5.40
2018-01-05T00:44:32.872Z,5.60
2018-01-05T00:46:36.363Z,5.80
2018-01-05T00:48:40.549Z,5.37
2018-01-05T00:50:43.873Z,5.63
2018-01-05T00:52:47.480Z,3.93
2018-01-05T00:54:51.987Z,5.00
2018-01-05T00:56:56.724Z,6.30
2018-01-05T00:59:00.093Z,3.67
2018-01-05T01:01:03.419Z,4.70
2018-01-05T01:03:08.488Z,5.10
2018-01-05T01:05:12.301Z,5.97
2018-01-05T01:07:16.473Z,5.47
2018-01-05T01:09:20.150Z,5.90
2018-01-05T01:11:23.516Z,5.63
2018-01-05T01:13:26.856Z,4.00
2018-01-05T01:15:30.365Z,6.53
2018-01-05T01:17:34.963Z,5.07
2018-01-05T01:19:38.341Z,4.70
2018-01-05T01:21:42.070Z,6.33
2018-01-05T01:23:46.200Z,4.60
2018-01-05T01:25:49.604Z,5.03
2018-01-05T01:27:52.942Z,3.97
2018-01-05T01:29:56.291Z,5.30
2018-01-05T01:31:59.677Z,5.30
2018-01-05T01:34:03.220Z,5.43
2018-01-05T01:36:06.619Z,5.87
2018-01-05T01:38:11.171Z,5.00
2018-01-05T01:40:15.894Z,5.83
2018-01-05T01:42:19.282Z,4.60
2018-01-05T01:44:23.387Z,6.43
2018-01-05T01:46:26.853Z,5.77
2018-01-05T01:48:30.376Z,5.23
2018-01-05T01:50:33.712Z,5.33
2018-01-05T01:52:37.085Z,5.93
2018-01-05T01:54:40.449Z,4.60
2018-01-05T01:56:44.572Z,5.10
2018-01-05T01:58:47.939Z,4.90
2018-01-05T02:00:51.269Z,5.07
2018-01-05T02:02:54.662Z,5.97
2018-01-05T02:04:58.134Z,5.23
2018-01-05T02:07:01.472Z,5.80
2018-01-05T02:09:04.833Z,5.93
2018-01-05T02:11:08.157Z,5.40
2018-01-05T02:13:11.508Z,4.90
2018-01-05T02:15:15.599Z,4.67
2018-01-05T02:17:18.978Z,4.40
2018-01-05T02:19:23.130Z,5.70
2018-01-05T02:21:26.492Z,4.50
2018-01-05T02:23:30.642Z,4.03
2018-01-05T02:25:33.969Z,4.73
2018-01-05T02:27:38.111Z,4.70
2018-01-05T02:29:41.497Z,4.20
2018-01-05T02:31:45.578Z,6.13
2018-01-05T02:33:48.942Z,5.40
2018-01-05T02:35:53.026Z,4.80
2018-01-05T02:37:56.400Z,4.47
2018-01-05T02:40:00.528Z,4.87
2018-01-05T02:42:03.856Z,4.50
2018-01-05T02:44:07.990Z,6.63
2018-01-05T02:46:11.341Z,4.37
2018-01-05T02:48:14.686Z,4.40
2018-01-05T02:50:18.028Z,5.23
2018-01-05T02:52:21.381Z,4.33
2018-01-05T02:54:25.458Z,6.20
2018-01-05T02:56:28.802Z,4.20
2018-01-05T02:58:32.129Z,4.03
2018-01-05T03:00:35.494Z,5.03
2018-01-05T03:02:38.840Z,4.20
2018-01-05T03:04:42.149Z,3.30
2018-01-05T03:06:45.515Z,3.93
2018-01-05T03:08:49.633Z,3.87
2018-01-05T03:10:52.995Z,5.00
2018-01-05T03:12:56.348Z,4.20
2018-01-05T03:14:59.743Z,5.00
2018-01-05T03:17:03.059Z,4.27
2018-01-05T03:19:06.382Z,3.97
2018-01-05T03:21:09.762Z,4.17
2018-01-05T03:23:13.097Z,3.20
2018-01-05T03:25:16.472Z,3.73
2018-01-05T03:27:20.575Z,3.80
2018-01-05T03:29:23.901Z,4.03
2018-01-05T03:31:27.291Z,4.20
2018-01-05T03:33:30.616Z,4.30
2018-01-05T03:35:33.973Z,3.93
2018-01-05T03:37:38.163Z,3.60
2018-01-05T03:39:42.257Z,3.73
2018-01-05T03:41:45.651Z,4.43
2018-01-05T03:43:48.961Z,4.10
2018-01-05T03:45:53.107Z,4.20
2018-01-05T03:47:57.205Z,4.97
2018-01-05T03:50:00.517Z,4.03
2018-01-05T03:52:03.887Z,4.03
2018-01-05T03:54:07.208Z,3.43
2018-01-05T03:56:10.567Z,4.93
2018-01-05T03:58:13.891Z,4.03
2018-01-05T04:00:17.224Z,4.40
2018-01-05T04:02:20.607Z,3.53
2018-01-05T04:04:24.684Z,3.80
2018-01-05T04:06:28.077Z,3.13
2018-01-05T04:08:31.411Z,4.97
2018-01-05T04:10:34.758Z,3.20
2018-01-05T04:12:38.128Z,3.93
2018-01-05T04:14:41.441Z,4.20
2018-01-05T04:16:44.811Z,3.73
2018-01-05T04:18:48.174Z,3.53
2018-01-05T04:20:51.553Z,3.30
2018-01-05T04:22:54.950Z,4.30
2018-01-05T04:24:59.059Z,5.20
2018-01-05T04:27:03.210Z,3.50
2018-01-05T04:29:06.554Z,3.77
2018-01-05T04:31:10.637Z,3.23
2018-01-05T04:33:14.021Z,3.73
2018-01-05T04:35:17.333Z,3.93
2018-01-05T04:37:20.723Z,4.20
2018-01-05T04:39:24.050Z,3.50
2018-01-05T04:41:27.400Z,4.90
2018-01-05T04:43:30.754Z,3.00
2018-01-05T04:45:34.078Z,3.17
2018-01-05T04:47:37.449Z,2.90
2018-01-05T04:49:40.777Z,3.17
2018-01-05T04:51:44.113Z,3.50
2018-01-05T04:53:47.450Z,2.93
2018-01-05T04:55:50.767Z,3.03
2018-01-05T04:57:54.877Z,3.70
2018-01-05T04:59:58.201Z,2.97
2018-01-05T05:02:01.535Z,3.70
2018-01-05T05:04:04.875Z,3.13
2018-01-05T05:06:08.237Z,2.57
2018-01-05T05:08:12.325Z,3.50
2018-01-05T05:10:15.709Z,3.27
2018-01-05T05:12:19.019Z,3.50
2018-01-05T05:14:22.388Z,2.50
2018-01-05T05:16:25.692Z,3.40
2018-01-05T05:18:29.076Z,3.60
2018-01-05T05:20:32.427Z,2.50
2018-01-05T05:22:35.751Z,3.20
2018-01-05T05:24:39.116Z,5.73
2018-01-05T05:26:42.442Z,2.70
2018-01-05T05:28:45.804Z,4.27
2018-01-05T05:30:49.114Z,3.00
2018-01-05T05:32:52.430Z,2.87
2018-01-05T05:34:55.804Z,2.90
2018-01-05T05:36:59.125Z,3.97
2018-01-05T05:39:02.507Z,2.90
2018-01-05T05:41:05.853Z,3.17
2018-01-05T05:43:09.162Z,3.17
2018-01-05T05:45:12.513Z,3.60
2018-01-05T05:47:15.825Z,2.83
2018-01-05T05:49:19.177Z,3.20
2018-01-05T05:51:23.257Z,2.63
2018-01-05T05:53:26.569Z,4.07
2018-01-05T05:55:30.686Z,3.20
2018-01-05T05:57:34.017Z,2.97
2018-01-05T05:59:37.327Z,3.77
2018-01-05T06:01:40.690Z,2.50
2018-01-05T06:03:44.000Z,3.57
2018-01-05T06:05:47.341Z,3.30
2018-01-05T06:07:50.659Z,3.20
2018-01-05T06:09:53.974Z,3.30
2018-01-05T06:11:57.312Z,5.70
2018-01-05T06:14:00.638Z,3.20
2018-01-05T06:16:03.995Z,3.47
2018-01-05T06:18:07.347Z,2.90
2018-01-05T06:20:10.677Z,3.20
2018-01-05T06:22:14.027Z,2.80
2018-01-05T06:24:17.341Z,3.30
2018-01-05T06:26:20.689Z,2.97
2018-01-05T06:28:24.031Z,3.00
2018-01-05T06:30:28.110Z,2.90
2018-01-05T06:32:31.449Z,3.33
2018-01-05T06:34:34.769Z,2.73
2018-01-05T06:36:38.086Z,3.13
2018-01-05T06:38:41.432Z,3.23
2018-01-05T06:40:44.757Z,3.07
2018-01-05T06:42:48.107Z,2.00
2018-01-05T06:44:51.464Z,2.87
2018-01-05T06:46:54.798Z,3.90
2018-01-05T06:48:58.138Z,3.60
2018-01-05T06:51:01.462Z,2.90
2018-01-05T06:53:05.581Z,3.43
2018-01-05T06:55:08.911Z,2.70
2018-01-05T06:57:12.237Z,3.90
2018-01-05T06:59:16.350Z,2.77
2018-01-05T07:01:20.440Z,2.30
2018-01-05T07:03:23.789Z,2.97
2018-01-05T07:05:27.114Z,3.27
2018-01-05T07:07:30.470Z,2.83
2018-01-05T07:09:33.810Z,2.40
2018-01-05T07:11:37.143Z,3.33
2018-01-05T07:13:40.512Z,2.83
2018-01-05T07:15:43.873Z,2.30
2018-01-05T07:17:47.231Z,3.37
2018-01-05T07:19:50.563Z,3.27
2018-01-05T07:21:54.581Z,2.50
2018-01-05T07:23:58.833Z,2.90
2018-01-05T07:26:02.327Z,3.80
2018-01-05T07:28:05.691Z,3.17
2018-01-05T07:30:09.040Z,2.20
2018-01-05T07:32:12.376Z,2.80
2018-01-05T07:34:15.714Z,2.73
2018-01-05T07:36:19.057Z,2.67
2018-01-05T07:38:23.221Z,2.30
2018-01-05T07:40:26.586Z,2.83
2018-01-05T07:42:29.912Z,2.73
2018-01-05T07:44:33.241Z,2.53
2018-01-05T07:46:36.619Z,2.50
2018-01-05T07:48:40.835Z,2.90
2018-01-05T07:50:44.824Z,2.80
2018-01-05T07:52:48.171Z,1.90
2018-01-05T07:54:51.483Z,2.33
2018-01-05T07:56:55.615Z,2.00
2018-01-05T07:58:59.857Z,2.50
2018-01-05T08:01:03.975Z,1.60
2018-01-05T08:03:07.305Z,2.40
2018-01-05T08:05:10.637Z,2.20
2018-01-05T08:07:14.766Z,1.90
2018-01-05T08:09:18.106Z,2.63
2018-01-05T08:11:21.492Z,2.23
2018-01-05T08:13:24.874Z,2.50
2018-01-05T08:15:29.103Z,2.50
2018-01-05T08:17:34.003Z,2.90
2018-01-05T08:19:37.330Z,2.47
2018-01-05T08:21:40.893Z,2.23
2018-01-05T08:23:44.336Z,2.77
2018-01-05T08:25:47.945Z,1.73
2018-01-05T08:27:54.128Z,2.13
2018-01-05T08:29:57.840Z,2.17
2018-01-05T08:32:01.394Z,1.70
2018-01-05T08:34:05.503Z,2.20
2018-01-05T08:36:09.078Z,2.20
2018-01-05T08:38:13.047Z,1.70
2018-01-05T08:40:17.284Z,2.53
2018-01-05T08:42:20.650Z,2.03
2018-01-05T08:44:23.971Z,2.30
2018-01-05T08:46:27.592Z,2.67
2018-01-05T08:48:31.831Z,2.60
2018-01-05T08:50:37.655Z,1.70
2018-01-05T08:52:41.021Z,2.20
2018-01-05T08:54:44.334Z,2.07
2018-01-05T08:56:47.774Z,2.07
2018-01-05T08:58:51.273Z,2.60
2018-01-05T09:00:54.610Z,2.10
2018-01-05T09:02:57.961Z,2.27
2018-01-05T09:05:01.344Z,2.10
2018-01-05T09:07:04.706Z,1.90
2018-01-05T09:09:08.822Z,1.93
2018-01-05T09:11:12.906Z,2.17
2018-01-05T09:13:17.001Z,2.03
2018-01-05T09:15:22.476Z,2.30
2018-01-05T09:17:25.952Z,2.10
2018-01-05T09:19:29.300Z,1.73
2018-01-05T09:21:32.978Z,2.07
2018-01-05T09:23:36.348Z,2.30
2018-01-05T09:25:40.678Z,1.93
2018-01-05T09:27:45.442Z,1.80
2018-01-05T09:31:57.090Z,2.00
2018-01-05T09:34:00.511Z,2.10
2018-01-05T09:36:03.809Z,2.03
2018-01-05T09:38:07.134Z,2.60
2018-01-05T09:40:10.488Z,1.90
2018-01-05T09:42:13.863Z,1.63
2018-01-05T09:44:17.271Z,1.40
2018-01-05T09:46:20.902Z,1.80
2018-01-05T09:48:25.058Z,2.30
2018-01-05T09:50:28.454Z,1.50
2018-01-05T09:52:33.744Z,1.77
2018-01-05T09:54:37.926Z,1.80
2018-01-05T09:56:41.296Z,1.80
2018-01-05T09:58:44.639Z,1.97
2018-01-05T10:00:48.031Z,1.70
2018-01-05T10:02:51.470Z,1.80
2018-01-05T10:04:55.356Z,2.07
2018-01-05T10:07:00.074Z,2.00
2018-01-05T10:09:04.188Z,1.90
2018-01-05T10:11:08.298Z,1.80
2018-01-05T10:13:12.408Z,2.30
2018-01-05T10:15:15.720Z,1.73
2018-01-05T10:17:19.113Z,2.07
2018-01-05T10:19:22.456Z,1.80
2018-01-05T10:21:26.572Z,1.80
2018-01-05T10:23:30.037Z,1.90
2018-01-05T10:25:37.402Z,2.30
2018-01-05T10:27:40.975Z,1.90
2018-01-05T10:29:45.186Z,1.63
2018-01-05T10:31:50.916Z,1.60
2018-01-05T10:33:55.017Z,1.70
2018-01-05T10:35:58.339Z,2.20
2018-01-05T10:38:01.710Z,1.50
2018-01-05T10:40:05.819Z,1.60
2018-01-05T10:42:09.946Z,1.43
2018-01-05T10:44:15.119Z,1.70
2018-01-05T10:46:18.637Z,1.90
2018-01-05T10:48:22.802Z,1.60
2018-01-05T10:50:26.164Z,1.70
2018-01-05T10:52:29.549Z,1.80
2018-01-05T10:54:32.921Z,1.80
2018-01-05T10:56:37.630Z,1.90
2018-01-05T10:58:41.021Z,1.60
2018-01-05T11:00:44.383Z,2.37
2018-01-05T11:02:47.705Z,2.10
2018-01-05T11:04:51.232Z,2.03
2018-01-05T11:06:55.343Z,2.17
2018-01-05T11:08:58.752Z,1.90
2018-01-05T11:11:02.836Z,2.57
2018-01-05T11:13:06.151Z,2.10
2018-01-05T11:15:10.265Z,2.20
2018-01-05T11:17:13.581Z,2.00
2018-01-05T11:19:16.995Z,2.83
2018-01-05T11:21:20.594Z,2.60
2018-01-05T11:23:24.005Z,2.00
2018-01-05T11:25:27.479Z,2.00
2018-01-05T11:27:30.798Z,1.70
2018-01-05T11:29:35.003Z,1.67
2018-01-05T11:31:38.345Z,1.90
2018-01-05T11:33:50.609Z,2.00
2018-01-05T11:35:54.735Z,2.10
2018-01-05T11:37:59.040Z,1.80
2018-01-05T11:40:03.606Z,2.47
2018-01-05T11:42:11.384Z,2.57
2018-01-05T11:44:14.741Z,2.43
2018-01-05T11:46:19.805Z,2.00
2018-01-05T11:48:23.136Z,2.10
2018-01-05T11:50:26.480Z,2.30
2018-01-05T11:52:29.820Z,2.07
2018-01-05T11:54:33.132Z,1.83
2018-01-05T11:56:37.508Z,1.97
2018-01-05T11:58:41.593Z,1.77
2018-01-05T12:00:44.905Z,1.43
2018-01-05T12:02:49.324Z,2.30
2018-01-05T12:04:52.718Z,2.27
2018-01-05T12:06:56.442Z,2.87
2018-01-05T12:08:59.850Z,2.10
2018-01-05T12:11:03.997Z,2.23
2018-01-05T12:13:07.368Z,2.10
2018-01-05T12:15:10.683Z,2.13
2018-01-05T12:17:14.071Z,2.37
2018-01-05T12:19:17.557Z,2.00
2018-01-05T12:21:20.997Z,2.20
2018-01-05T12:23:24.390Z,2.40
2018-01-05T12:25:28.582Z,2.90
2018-01-05T12:27:31.889Z,2.67
2018-01-05T12:29:35.251Z,2.40
2018-01-05T12:31:38.660Z,1.90
2018-01-05T12:33:42.649Z,2.70
2018-01-05T12:35:46.900Z,1.80
2018-01-05T12:37:50.219Z,1.90
2018-01-05T12:39:54.399Z,2.00
2018-01-05T12:41:58.611Z,2.00
2018-01-05T12:44:02.931Z,1.60
2018-01-05T12:46:06.321Z,2.03
2018-01-05T12:48:09.648Z,2.00
2018-01-05T12:50:13.761Z,1.90
2018-01-05T12:52:17.086Z,2.13
2018-01-05T12:54:20.410Z,1.80
2018-01-05T12:56:24.766Z,2.13
2018-01-05T12:58:28.150Z,1.60
2018-01-05T13:00:32.308Z,2.33
2018-01-05T13:02:35.615Z,4.83
2018-01-05T13:04:38.931Z,2.57
2018-01-05T13:06:43.041Z,2.00
2018-01-05T13:08:48.488Z,2.97
2018-01-05T13:10:51.993Z,2.97
2018-01-05T13:12:55.355Z,2.13
2018-01-05T13:14:59.429Z,3.50
2018-01-05T13:17:02.900Z,2.60
2018-01-05T13:19:06.213Z,1.90
2018-01-05T13:21:09.577Z,5.03
2018-01-05T13:23:12.899Z,2.50
2018-01-05T13:25:16.203Z,2.10
2018-01-05T13:27:19.557Z,2.30
2018-01-05T13:29:24.082Z,3.27
2018-01-05T13:31:27.477Z,4.10
2018-01-05T13:33:30.828Z,3.63
2018-01-05T13:35:34.229Z,4.47
2018-01-05T13:37:37.614Z,4.10
2018-01-05T13:39:41.756Z,2.30
2018-01-05T13:41:46.111Z,3.27
2018-01-05T13:43:50.335Z,2.70
2018-01-05T13:45:56.011Z,2.90
2018-01-05T13:48:00.061Z,2.33
2018-01-05T13:50:05.013Z,3.00
2018-01-05T13:52:09.677Z,2.50
2018-01-05T13:54:13.075Z,4.93
2018-01-05T13:56:16.397Z,4.57
2018-01-05T13:58:19.760Z,3.53
2018-01-05T14:00:23.670Z,2.80
2018-01-05T14:02:28.749Z,2.90
2018-01-05T14:04:33.014Z,3.10
2018-01-05T14:06:38.039Z,2.50
2018-01-05T14:08:41.739Z,3.10
2018-01-05T14:10:45.111Z,3.10
2018-01-05T14:12:48.554Z,2.93
2018-01-05T14:14:52.703Z,8.07
2018-01-05T14:16:56.110Z,7.60
2018-01-05T14:18:59.470Z,3.57
2018-01-05T14:21:03.566Z,3.73
2018-01-05T14:23:07.032Z,5.63
2018-01-05T14:25:10.405Z,4.03
2018-01-05T14:27:13.758Z,2.50
2018-01-05T14:29:17.130Z,4.40
2018-01-05T14:31:20.443Z,9.50
2018-01-05T14:33:23.767Z,3.80
2018-01-05T14:35:27.137Z,4.10
2018-01-05T14:37:30.469Z,4.33
2018-01-05T14:39:33.835Z,2.90
2018-01-05T14:41:37.153Z,4.60
2018-01-05T14:43:40.465Z,3.23
2018-01-05T14:45:43.878Z,3.83
2018-01-05T14:47:47.999Z,3.97
2018-01-05T14:49:52.142Z,3.93
2018-01-05T14:51:55.961Z,3.43
2018-01-05T14:53:59.621Z,2.70
2018-01-05T14:56:03.087Z,5.93
2018-01-05T14:58:07.349Z,11.30
2018-01-05T15:00:10.695Z,3.83
2018-01-05T15:02:14.123Z,4.33
2018-01-05T15:04:17.488Z,3.40
2018-01-05T15:06:21.624Z,3.53
2018-01-05T15:08:25.906Z,4.30
2018-01-05T15:10:30.088Z,6.93
2018-01-05T15:12:33.463Z,3.87
2018-01-05T15:14:37.711Z,3.40
2018-01-05T15:16:41.057Z,3.80
2018-01-05T15:18:44.496Z,2.90
2018-01-05T15:20:48.628Z,3.57
2018-01-05T15:22:52.476Z,7.00
2018-01-05T15:24:55.820Z,6.33
2018-01-05T15:27:02.797Z,3.70
2018-01-05T15:29:07.048Z,2.60
2018-01-05T15:31:10.368Z,3.07
2018-01-05T15:33:14.543Z,2.33
2018-01-05T15:35:19.751Z,2.47
2018-01-05T15:37:23.910Z,2.37
2018-01-05T15:39:28.234Z,1.57
2018-01-05T15:41:32.002Z,2.60
2018-01-05T15:43:35.450Z,4.83
2018-01-05T15:45:39.791Z,3.37
2018-01-05T15:47:44.135Z,2.23
2018-01-05T15:49:48.339Z,2.33
2018-01-05T15:51:52.179Z,3.03
2018-01-05T15:53:55.938Z,2.13
2018-01-05T15:56:00.431Z,2.00
2018-01-05T15:58:05.832Z,2.13
2018-01-05T16:00:09.195Z,2.57
2018-01-05T16:02:12.617Z,2.23
2018-01-05T16:04:16.227Z,2.10
2018-01-05T16:06:22.404Z,2.47
2018-01-05T16:08:26.660Z,2.00
2018-01-05T16:10:31.413Z,2.20
2018-01-05T16:12:35.667Z,1.87
2018-01-05T16:14:39.465Z,6.23
2018-01-05T16:16:42.854Z,2.27
2018-01-05T16:18:47.430Z,2.47
2018-01-05T16:20:50.812Z,2.40
2018-01-05T16:22:54.209Z,3.13
2018-01-05T16:24:57.936Z,2.60
2018-01-05T16:27:01.269Z,2.57
2018-01-05T16:29:05.454Z,3.23
2018-01-05T16:31:10.057Z,2.90
2018-01-05T16:33:14.327Z,3.13
2018-01-05T16:35:17.951Z,2.63
2018-01-05T16:37:21.287Z,3.00
2018-01-05T16:39:26.201Z,2.60
2018-01-05T16:41:29.563Z,3.00
2018-01-05T16:43:33.257Z,2.53
2018-01-05T16:45:36.628Z,2.90
2018-01-05T16:47:39.940Z,3.20
2018-01-05T16:49:43.287Z,2.90
2018-01-05T16:51:47.405Z,2.60
2018-01-05T16:53:51.601Z,2.60
2018-01-05T16:55:54.926Z,2.47
2018-01-05T16:57:58.318Z,3.20
2018-01-05T17:00:02.551Z,3.40
2018-01-05T17:02:05.919Z,4.60
2018-01-05T17:04:09.275Z,3.50
2018-01-05T17:06:13.494Z,8.60
2018-01-05T17:08:18.323Z,3.87
2018-01-05T17:10:21.640Z,3.03
2018-01-05T17:12:25.786Z,2.80
2018-01-05T17:14:29.951Z,3.60
2018-01-05T17:16:34.022Z,3.70
2018-01-05T17:18:38.122Z,3.10
2018-01-05T17:20:41.433Z,4.00
2018-01-05T17:22:46.269Z,4.30
2018-01-05T17:24:49.592Z,4.83
2018-01-05T17:26:52.901Z,3.63
2018-01-05T17:28:56.239Z,4.20
2018-01-05T17:30:59.626Z,4.23
2018-01-05T17:33:04.345Z,4.20
2018-01-05T17:35:08.431Z,3.87
2018-01-05T17:37:12.442Z,3.03
2018-01-05T17:39:15.783Z,3.03
2018-01-05T17:41:19.106Z,3.23
2018-01-05T17:43:23.241Z,3.00
2018-01-05T17:45:27.344Z,3.00
2018-01-05T17:47:31.502Z,3.63
2018-01-05T17:49:34.829Z,4.17
2018-01-05T17:51:38.150Z,5.20
2018-01-05T17:53:42.269Z,6.70
2018-01-05T17:55:45.617Z,6.43
2018-01-05T17:57:48.929Z,9.80
2018-01-05T17:59:52.315Z,6.87
2018-01-05T18:01:56.421Z,8.57
2018-01-05T18:03:59.768Z,5.80
2018-01-05T18:06:03.082Z,4.63
2018-01-05T18:08:06.413Z,4.33
2018-01-05T18:10:10.522Z,6.20
2018-01-05T18:12:14.621Z,4.40
2018-01-05T18:14:18.737Z,4.30
2018-01-05T18:16:22.884Z,5.03
2018-01-05T18:18:26.223Z,5.13
2018-01-05T18:20:29.568Z,4.53
2018-01-05T18:22:32.882Z,3.80
2018-01-05T18:24:36.234Z,3.63
2018-01-05T18:26:39.546Z,4.13
2018-01-05T18:28:42.883Z,3.70
2018-01-05T18:30:46.244Z,4.63
2018-01-05T18:32:49.591Z,4.10
2018-01-05T18:34:52.950Z,3.80
2018-01-05T18:36:57.046Z,4.10
2018-01-05T18:39:00.362Z,3.97
2018-01-05T18:41:03.726Z,4.03
2018-01-05T18:43:07.096Z,4.70
2018-01-05T18:45:10.450Z,4.30
2018-01-05T18:47:13.802Z,3.93
2018-01-05T18:49:17.145Z,4.60
2018-01-05T18:51:20.516Z,5.20
2018-01-05T18:53:24.664Z,3.63
2018-01-05T18:55:28.070Z,3.97
2018-01-05T18:57:31.385Z,3.00
2018-01-05T18:59:34.697Z,4.93
2018-01-05T19:01:38.836Z,4.50
2018-01-05T19:03:42.155Z,3.53
2018-01-05T19:05:45.476Z,3.40
2018-01-05T19:07:49.609Z,5.53
2018-01-05T19:09:53.694Z,3.70
2018-01-05T19:11:57.068Z,3.90
2018-01-05T19:14:00.380Z,4.00
2018-01-05T19:16:04.471Z,4.17
2018-01-05T19:18:07.861Z,2.90
2018-01-05T19:20:11.219Z,3.10
2018-01-05T19:22:14.550Z,5.10
2018-01-05T19:24:17.937Z,4.77
2018-01-05T19:26:21.540Z,4.60
2018-01-05T19:28:24.999Z,4.40
2018-01-05T19:30:28.321Z,3.10
2018-01-05T19:32:31.647Z,2.87
2018-01-05T19:34:34.989Z,2.43
2018-01-05T19:36:39.235Z,3.23
2018-01-05T19:38:43.049Z,3.10
2018-01-05T19:40:46.897Z,3.13
2018-01-05T19:42:50.192Z,2.80
2018-01-05T19:44:53.527Z,3.20
2018-01-05T19:46:57.636Z,3.07
2018-01-05T19:49:00.978Z,2.80
2018-01-05T19:51:05.121Z,2.90
2018-01-05T19:53:08.457Z,2.90
2018-01-05T19:55:11.821Z,3.80
2018-01-05T19:57:15.135Z,5.27
2018-01-05T19:59:18.486Z,4.90
2018-01-05T20:01:21.797Z,4.73
2018-01-05T20:03:25.924Z,5.77
2018-01-05T20:05:29.264Z,4.37
2018-01-05T20:07:32.573Z,3.97
2018-01-05T20:09:35.877Z,4.10
2018-01-05T20:11:40.014Z,3.80
2018-01-05T20:13:43.340Z,4.30
2018-01-05T20:15:46.718Z,4.90
2018-01-05T20:17:50.028Z,4.30
2018-01-05T20:19:54.314Z,5.37
2018-01-05T20:21:57.676Z,4.37
2018-01-05T20:24:01.076Z,4.20
2018-01-05T20:26:04.416Z,4.97
2018-01-05T20:28:09.681Z,4.43
2018-01-05T20:30:13.044Z,3.50
2018-01-05T20:32:16.453Z,4.10
2018-01-05T20:34:19.768Z,4.57
2018-01-05T20:36:23.781Z,4.50
2018-01-05T20:38:27.849Z,4.97
2018-01-05T20:40:31.285Z,4.73
2018-01-05T20:42:35.637Z,4.63
2018-01-05T20:44:38.982Z,4.80
2018-01-05T20:46:42.415Z,4.40
2018-01-05T20:48:46.997Z,4.40
2018-01-05T20:50:51.366Z,4.30
2018-01-05T20:52:54.756Z,3.53
2018-01-05T20:54:58.795Z,4.20
2018-01-05T20:57:02.206Z,4.90
2018-01-05T20:59:10.956Z,4.83
2018-01-05T21:01:14.353Z,4.37
2018-01-05T21:03:17.762Z,3.80
2018-01-05T21:05:21.212Z,3.60
2018-01-05T21:07:24.553Z,4.30
2018-01-05T21:09:27.894Z,3.90
2018-01-05T21:11:31.406Z,3.77
2018-01-05T21:13:34.805Z,3.90
2018-01-05T21:15:38.175Z,3.43
2018-01-05T21:17:42.397Z,3.57
2018-01-05T21:19:45.867Z,3.80
2018-01-05T21:21:50.109Z,4.13
2018-01-05T21:23:53.424Z,3.80
2018-01-05T21:25:56.749Z,3.53
2018-01-05T21:28:01.031Z,3.60
2018-01-05T21:30:04.549Z,4.33
2018-01-05T21:32:07.892Z,3.93
2018-01-05T21:34:11.316Z,3.63
2018-01-05T21:36:14.769Z,4.47
2018-01-05T21:38:18.123Z,3.60
2018-01-05T21:40:21.493Z,4.23
2018-01-05T21:42:24.855Z,4.37
2018-01-05T21:44:30.194Z,3.90
2018-01-05T21:46:33.644Z,4.80
2018-01-05T21:48:37.009Z,2.93
2018-01-05T21:50:40.424Z,3.63
2018-01-05T21:52:43.834Z,3.33
2018-01-05T21:54:47.169Z,3.70
2018-01-05T21:56:50.546Z,3.47
2018-01-05T21:58:53.888Z,3.40
2018-01-05T22:00:57.246Z,3.73
2018-01-05T22:03:00.600Z,5.80
2018-01-05T22:05:03.986Z,6.23
2018-01-05T22:07:08.114Z,7.43
2018-01-05T22:09:11.641Z,5.80
2018-01-05T22:11:15.037Z,5.10
2018-01-05T22:13:18.346Z,4.03
2018-01-05T22:15:21.666Z,3.47
2018-01-05T22:17:25.771Z,3.67
2018-01-05T22:19:29.126Z,4.10
2018-01-05T22:21:32.463Z,3.77
2018-01-05T22:23:35.834Z,3.40
2018-01-05T22:25:39.911Z,3.90
2018-01-05T22:27:43.287Z,3.53
2018-01-05T22:29:47.296Z,2.80
2018-01-05T22:31:50.658Z,3.10
2018-01-05T22:33:54.975Z,3.20
2018-01-05T22:35:58.988Z,2.40
2018-01-05T22:38:03.248Z,3.07
2018-01-05T22:40:07.581Z,3.57
2018-01-05T22:42:11.731Z,2.70
2018-01-05T22:44:15.049Z,3.43
2018-01-05T22:46:18.405Z,2.80
2018-01-05T22:48:21.920Z,2.80
2018-01-05T22:50:25.286Z,3.73
2018-01-05T22:52:29.925Z,2.57
2018-01-05T22:54:33.311Z,2.80
2018-01-05T22:56:36.671Z,2.60
2018-01-05T22:58:40.032Z,2.40
2018-01-05T23:00:44.298Z,2.60
2018-01-05T23:02:47.650Z,2.40
2018-01-05T23:04:50.997Z,2.70
2018-01-05T23:06:55.021Z,3.00
2018-01-05T23:08:59.206Z,2.30
2018-01-05T23:11:02.598Z,2.63
2018-01-05T23:13:05.925Z,3.10
2018-01-05T23:15:09.278Z,2.50
2018-01-05T23:17:13.154Z,3.00
2018-01-05T23:19:18.705Z,2.53
2018-01-05T23:21:22.823Z,2.00
2018-01-05T23:23:26.557Z,3.10
2018-01-05T23:25:29.974Z,2.60
2018-01-05T23:27:34.097Z,3.20
2018-01-05T23:29:38.173Z,2.80
2018-01-05T23:31:41.529Z,2.50
2018-01-05T23:33:44.852Z,2.80
2018-01-05T23:35:48.193Z,2.40
2018-01-05T23:37:52.286Z,3.40
2018-01-05T23:39:55.597Z,2.57
2018-01-05T23:41:59.721Z,2.80
2018-01-05T23:44:03.050Z,2.30
2018-01-05T23:46:06.350Z,2.90
2018-01-05T23:48:09.720Z,3.10
2018-01-05T23:50:13.053Z,2.53
2018-01-05T23:52:16.481Z,3.17
2018-01-05T23:54:20.626Z,3.03
2018-01-05T23:56:24.006Z,2.30
2018-01-05T23:58:27.367Z,2.50
